Time;durP1;ratioP1;P1;durP2;ratioP2;P2;SDS_P1;SDS_P2;PMS_P1;PMS_P2;Temp;Humidity;BMP_temperature;BMP_pressure;BME280_temperature;BME280_humidity;BME280_pressure;Samples;Min_cycle;Max_cycle;Signal;HPM_P1;HPM_P2
2023/09/25 00:00:09;;;;;;;3.65;1.60;;;13.00;99.90;;;;;;5070655;28;20041;-75
2023/09/25 00:02:34;;;;;;;3.95;1.52;;;13.00;99.90;;;;;;5070344;28;20040;-75
2023/09/25 00:05:00;;;;;;;5.13;1.88;;;12.90;99.90;;;;;;5069465;28;20469;-76
2023/09/25 00:07:25;;;;;;;4.13;1.90;;;13.00;99.90;;;;;;5070580;28;20045;-75
2023/09/25 00:09:51;;;;;;;4.70;1.65;;;13.00;99.90;;;;;;5070284;28;20085;-75
2023/09/25 00:12:17;;;;;;;4.93;1.63;;;13.00;99.90;;;;;;5070449;28;20041;-76
2023/09/25 00:14:42;;;;;;;3.35;1.40;;;13.00;99.90;;;;;;5070390;28;20476;-74
2023/09/25 00:17:08;;;;;;;5.03;1.70;;;13.30;99.90;;;;;;5069987;28;20051;-77
2023/09/25 00:19:34;;;;;;;3.33;1.67;;;13.00;99.90;;;;;;5068819;28;20040;-75
2023/09/25 00:22:00;;;;;;;5.20;1.85;;;13.00;99.90;;;;;;5070591;28;20123;-77
2023/09/25 00:24:25;;;;;;;6.25;1.70;;;13.00;99.90;;;;;;5070631;28;20129;-77
2023/09/25 00:26:51;;;;;;;7.70;1.90;;;13.10;99.90;;;;;;5070593;28;20074;-77
2023/09/25 00:29:17;;;;;;;3.70;1.83;;;13.00;99.90;;;;;;5070162;28;20399;-76
2023/09/25 00:31:42;;;;;;;4.35;2.00;;;13.70;99.90;;;;;;5068550;28;20053;-76
2023/09/25 00:34:08;;;;;;;4.70;1.92;;;13.50;99.90;;;;;;5068780;28;20048;-75
2023/09/25 00:36:34;;;;;;;6.90;2.00;;;13.20;99.90;;;;;;5068609;28;20053;-75
2023/09/25 00:39:00;;;;;;;6.00;1.98;;;13.00;99.90;;;;;;5068624;28;20040;-74
2023/09/25 00:41:25;;;;;;;4.50;1.88;;;13.00;99.90;;;;;;5070171;28;20376;-74
2023/09/25 00:43:51;;;;;;;6.30;2.08;;;13.10;99.90;;;;;;5070051;28;20067;-74
2023/09/25 00:46:17;;;;;;;5.63;2.20;;;13.00;99.90;;;;;;5069405;28;20534;-78
2023/09/25 00:48:42;;;;;;;5.97;2.58;;;13.30;99.90;;;;;;5069758;28;20052;-76
2023/09/25 00:51:09;;;;;;;7.45;2.25;;;13.00;99.90;;;;;;5069996;28;20038;-75
2023/09/25 00:53:35;;;;;;;4.03;1.90;;;13.00;99.90;;;;;;5070433;28;20067;-74
2023/09/25 00:56:01;;;;;;;7.20;2.20;;;13.20;99.90;;;;;;5069954;28;20475;-75
2023/09/25 00:58:27;;;;;;;4.90;2.20;;;12.90;99.90;;;;;;5070166;28;20048;-76
2023/09/25 01:00:53;;;;;;;3.85;2.13;;;13.00;99.90;;;;;;5070026;28;20434;-76
2023/09/25 01:03:19;;;;;;;3.60;1.90;;;13.00;99.90;;;;;;5069478;28;20052;-78
2023/09/25 01:05:45;;;;;;;5.88;2.03;;;12.90;99.90;;;;;;5068360;28;20468;-78
2023/09/25 01:08:10;;;;;;;4.25;1.90;;;13.20;99.90;;;;;;5069223;28;21527;-77
2023/09/25 01:10:39;;;;;;;3.92;1.83;;;13.40;99.90;;;;;;5061683;28;20045;-78
2023/09/25 01:13:05;;;;;;;6.32;2.08;;;12.90;99.90;;;;;;5068276;28;20049;-75
2023/09/25 01:15:31;;;;;;;9.15;2.38;;;12.90;99.90;;;;;;5069053;28;20047;-74
2023/09/25 01:17:57;;;;;;;4.10;1.83;;;12.80;99.90;;;;;;5067732;28;20071;-74
2023/09/25 01:20:24;;;;;;;4.55;1.77;;;13.20;99.90;;;;;;5069396;28;20104;-76
2023/09/25 01:22:50;;;;;;;8.35;2.20;;;12.70;99.90;;;;;;5069839;28;20510;-74
2023/09/25 01:25:19;;;;;;;5.65;1.70;;;12.80;99.90;;;;;;5070086;28;20132;-74
2023/09/25 01:27:47;;;;;;;4.53;1.83;;;12.70;99.90;;;;;;5069311;28;20040;-74
2023/09/25 01:30:13;;;;;;;4.13;2.10;;;13.20;99.90;;;;;;5069758;28;20048;-75
2023/09/25 01:32:42;;;;;;;5.00;1.83;;;13.30;99.90;;;;;;5069766;28;20406;-73
2023/09/25 01:35:18;;;;;;;8.45;1.88;;;12.70;99.90;;;;;;5069336;28;20496;-75
2023/09/25 01:37:46;;;;;;;5.65;2.15;;;12.80;99.90;;;;;;5069336;28;20127;-74
2023/09/25 01:40:21;;;;;;;4.50;2.03;;;12.70;99.90;;;;;;5069268;28;20041;-74
2023/09/25 01:42:47;;;;;;;4.93;2.13;;;12.70;99.90;;;;;;5069352;28;20050;-76
2023/09/25 01:45:18;;;;;;;6.75;2.15;;;13.00;99.90;;;;;;5067955;28;20052;-78
2023/09/25 01:47:51;;;;;;;6.43;2.35;;;13.00;99.90;;;;;;5069046;28;20052;-76
2023/09/25 01:50:22;;;;;;;4.63;2.20;;;12.50;99.90;;;;;;5061193;28;20139;-77
2023/09/25 01:52:57;;;;;;;4.50;2.08;;;12.50;99.90;;;;;;5068045;28;20494;-77
2023/09/25 01:55:23;;;;;;;5.97;2.17;;;12.50;99.90;;;;;;5059611;28;20063;-76
2023/09/25 01:57:48;;;;;;;4.28;2.33;;;12.80;99.90;;;;;;5069175;28;20074;-75
2023/09/25 02:00:16;;;;;;;5.93;2.45;;;12.40;99.90;;;;;;5067600;28;20047;-77
2023/09/25 02:02:42;;;;;;;3.63;2.00;;;12.40;99.90;;;;;;5067906;28;20402;-74
2023/09/25 02:05:08;;;;;;;4.65;2.33;;;12.70;99.90;;;;;;5068957;28;20040;-75
2023/09/25 02:07:33;;;;;;;5.45;2.10;;;12.40;99.90;;;;;;5067612;28;20048;-74
2023/09/25 02:09:59;;;;;;;5.25;2.60;;;12.40;99.90;;;;;;5068872;28;20127;-75
2023/09/25 02:12:25;;;;;;;4.35;2.13;;;12.30;99.90;;;;;;5050816;28;20056;-74
2023/09/25 02:14:54;;;;;;;10.68;2.50;;;12.50;99.90;;;;;;5068790;28;20044;-75
2023/09/25 02:17:20;;;;;;;5.00;2.25;;;12.30;99.90;;;;;;5068795;28;20117;-76
2023/09/25 02:19:46;;;;;;;5.22;2.40;;;12.20;99.90;;;;;;5067175;28;20090;-77
2023/09/25 02:22:12;;;;;;;6.30;2.47;;;12.20;99.90;;;;;;5068743;28;20501;-75
2023/09/25 02:24:39;;;;;;;5.38;2.45;;;12.20;99.90;;;;;;5068987;28;20048;-76
2023/09/25 02:27:05;;;;;;;4.90;2.80;;;12.20;99.90;;;;;;5069123;28;20115;-74
2023/09/25 02:29:31;;;;;;;6.32;2.53;;;12.20;99.90;;;;;;5070872;28;20062;-74
2023/09/25 02:31:57;;;;;;;4.78;2.63;;;12.10;99.90;;;;;;5071979;28;20135;-74
2023/09/25 02:34:22;;;;;;;4.43;2.22;;;12.30;99.90;;;;;;5072363;28;20509;-74
2023/09/25 02:36:48;;;;;;;7.60;2.90;;;12.10;99.90;;;;;;5070983;28;20055;-78
2023/09/25 02:39:15;;;;;;;4.72;2.60;;;12.30;99.90;;;;;;5071031;28;20052;-75
2023/09/25 02:41:40;;;;;;;5.18;2.50;;;12.20;99.90;;;;;;5072271;28;20574;-78
2023/09/25 02:44:06;;;;;;;4.72;2.33;;;12.40;99.90;;;;;;5070752;28;20048;-75
2023/09/25 02:46:32;;;;;;;6.47;2.72;;;12.30;99.90;;;;;;5071692;28;20547;-75
2023/09/25 02:48:58;;;;;;;7.32;2.42;;;12.10;99.90;;;;;;5072198;28;20059;-76
2023/09/25 02:51:24;;;;;;;4.15;2.30;;;12.10;99.90;;;;;;5071988;28;20479;-75
2023/09/25 02:53:51;;;;;;;7.85;2.97;;;12.60;99.90;;;;;;5071978;28;20037;-77
2023/09/25 02:56:17;;;;;;;7.15;2.85;;;12.10;99.90;;;;;;5071925;28;20051;-74
2023/09/25 02:58:44;;;;;;;6.53;2.35;;;12.10;99.90;;;;;;5071943;28;20131;-76
2023/09/25 03:01:09;;;;;;;3.97;2.17;;;12.10;99.90;;;;;;5070750;28;20047;-76
2023/09/25 03:03:35;;;;;;;5.97;2.63;;;12.10;99.90;;;;;;5072158;28;20044;-74
2023/09/25 03:06:00;;;;;;;4.95;2.40;;;12.30;99.90;;;;;;5072042;28;20044;-76
2023/09/25 03:08:26;;;;;;;4.88;2.40;;;12.10;99.90;;;;;;5071867;28;20166;-76
2023/09/25 03:10:52;;;;;;;4.95;2.10;;;12.10;99.90;;;;;;5071280;28;20097;-76
2023/09/25 03:13:17;;;;;;;5.07;2.47;;;12.80;99.90;;;;;;5071089;28;20087;-75
2023/09/25 03:15:43;;;;;;;5.70;2.40;;;12.20;99.90;;;;;;5070883;28;20048;-77
2023/09/25 03:18:11;;;;;;;5.82;2.88;;;12.10;99.90;;;;;;5071620;28;20070;-76
2023/09/25 03:20:38;;;;;;;3.67;2.20;;;12.20;99.90;;;;;;5071188;28;20495;-76
2023/09/25 03:23:04;;;;;;;4.68;2.38;;;12.10;99.90;;;;;;5071059;28;20044;-75
2023/09/25 03:25:37;;;;;;;4.57;2.10;;;12.10;99.90;;;;;;5069981;28;20071;-74
2023/09/25 03:28:03;;;;;;;4.15;2.30;;;12.40;99.90;;;;;;5071081;28;20051;-74
2023/09/25 03:30:29;;;;;;;6.30;2.28;;;12.10;99.90;;;;;;5071396;28;20044;-75
2023/09/25 03:32:55;;;;;;;5.07;2.40;;;12.10;99.90;;;;;;5070102;28;20142;-75
2023/09/25 03:35:24;;;;;;;4.57;2.22;;;12.40;99.90;;;;;;5070817;28;20128;-75
2023/09/25 03:37:49;;;;;;;8.48;2.33;;;12.60;99.90;;;;;;5070438;28;20044;-75
2023/09/25 03:40:15;;;;;;;7.13;2.53;;;12.10;99.90;;;;;;5070305;28;20487;-76
2023/09/25 03:42:42;;;;;;;5.10;2.53;;;12.10;99.90;;;;;;5069945;28;20037;-75
2023/09/25 03:45:08;;;;;;;6.93;2.30;;;12.10;99.90;;;;;;5070538;28;20051;-78
2023/09/25 03:47:35;;;;;;;4.68;2.60;;;12.10;99.90;;;;;;5070707;28;20411;-75
2023/09/25 03:50:04;;;;;;;4.97;2.40;;;12.00;99.90;;;;;;5070903;28;20055;-74
2023/09/25 03:52:30;;;;;;;5.75;2.42;;;12.10;99.90;;;;;;5068844;28;20044;-75
2023/09/25 03:54:56;;;;;;;5.85;2.30;;;12.10;99.90;;;;;;5069270;28;20120;-75
2023/09/25 03:57:22;;;;;;;5.00;2.40;;;12.10;99.90;;;;;;5068740;28;20190;-77
2023/09/25 03:59:47;;;;;;;7.28;2.53;;;12.00;99.90;;;;;;5070808;28;20495;-75
2023/09/25 04:02:13;;;;;;;4.97;2.40;;;12.00;99.90;;;;;;5070289;28;20047;-73
2023/09/25 04:04:38;;;;;;;4.32;2.55;;;12.00;99.90;;;;;;5070917;28;20052;-74
2023/09/25 04:07:04;;;;;;;3.60;2.38;;;12.00;99.90;;;;;;5068621;28;20044;-74
2023/09/25 04:09:30;;;;;;;5.10;2.55;;;12.00;99.90;;;;;;5070175;28;20057;-74
2023/09/25 04:11:57;;;;;;;6.68;2.60;;;12.50;99.90;;;;;;5070571;28;20050;-79
2023/09/25 04:14:23;;;;;;;5.63;2.47;;;12.60;99.90;;;;;;5070648;28;20098;-77
2023/09/25 04:16:49;;;;;;;7.35;2.72;;;12.00;99.90;;;;;;5068867;28;20059;-77
2023/09/25 04:19:15;;;;;;;5.93;2.70;;;12.00;99.90;;;;;;5070480;28;20044;-75
2023/09/25 04:21:42;;;;;;;7.25;2.95;;;12.60;99.90;;;;;;5070012;28;20044;-78
2023/09/25 04:24:10;;;;;;;8.18;2.70;;;12.10;99.90;;;;;;5070511;28;20033;-76
2023/09/25 04:26:39;;;;;;;5.15;2.58;;;12.10;99.90;;;;;;5070459;28;20047;-75
2023/09/25 04:29:05;;;;;;;6.22;3.38;;;12.40;99.90;;;;;;5070020;28;20028;-79
2023/09/25 04:31:31;;;;;;;6.50;2.80;;;12.10;99.90;;;;;;5068457;28;20048;-75
2023/09/25 04:33:56;;;;;;;6.60;3.20;;;12.00;99.90;;;;;;5070221;28;20040;-77
2023/09/25 04:36:23;;;;;;;7.45;2.67;;;12.30;99.90;;;;;;5069705;28;20091;-75
2023/09/25 04:38:49;;;;;;;4.90;2.58;;;12.10;99.90;;;;;;5069620;28;20040;-74
2023/09/25 04:41:14;;;;;;;6.63;2.90;;;12.00;99.90;;;;;;5069468;28;20051;-77
2023/09/25 04:43:40;;;;;;;9.45;3.15;;;12.50;99.90;;;;;;5068288;28;20075;-79
2023/09/25 04:46:06;;;;;;;4.82;2.60;;;12.50;99.90;;;;;;5069654;28;20047;-74
2023/09/25 04:48:31;;;;;;;5.80;2.75;;;12.40;99.90;;;;;;5069518;28;20758;-76
2023/09/25 04:50:57;;;;;;;6.07;2.50;;;12.00;99.90;;;;;;5069044;28;20110;-74
2023/09/25 04:53:23;;;;;;;7.50;2.78;;;12.60;99.90;;;;;;5069599;28;20038;-75
2023/09/25 04:55:49;;;;;;;6.15;2.38;;;12.00;99.90;;;;;;5069860;28;20051;-74
2023/09/25 04:58:14;;;;;;;4.20;2.45;;;12.10;99.90;;;;;;5069883;28;20087;-74
2023/09/25 05:00:41;;;;;;;9.70;3.17;;;12.10;99.90;;;;;;5069096;28;20048;-75
2023/09/25 05:03:07;;;;;;;7.20;2.90;;;12.10;99.90;;;;;;5051273;28;20101;-74
2023/09/25 05:05:33;;;;;;;7.55;2.42;;;12.10;99.90;;;;;;5061247;28;20044;-73
2023/09/25 05:07:58;;;;;;;6.07;2.60;;;12.10;99.90;;;;;;5069451;28;20041;-74
2023/09/25 05:10:26;;;;;;;4.97;2.78;;;12.00;99.90;;;;;;5067838;28;20052;-77
2023/09/25 05:12:53;;;;;;;7.15;2.85;;;12.20;99.90;;;;;;5069415;28;20450;-78
2023/09/25 05:15:19;;;;;;;4.03;2.83;;;12.20;99.90;;;;;;5069644;28;20044;-74
2023/09/25 05:17:46;;;;;;;6.55;3.05;;;12.10;99.90;;;;;;5069122;28;20051;-74
2023/09/25 05:20:18;;;;;;;4.88;2.60;;;12.00;99.90;;;;;;5069289;28;20064;-75
2023/09/25 05:22:48;;;;;;;5.57;3.28;;;12.00;99.90;;;;;;5068448;28;20064;-75
2023/09/25 05:25:14;;;;;;;6.35;2.85;;;12.10;99.90;;;;;;5070061;28;20482;-76
2023/09/25 05:27:44;;;;;;;6.10;2.78;;;12.00;99.90;;;;;;5069495;28;20044;-74
2023/09/25 05:30:10;;;;;;;5.40;2.60;;;12.00;99.90;;;;;;5069503;28;20048;-75
2023/09/25 05:32:41;;;;;;;7.35;3.28;;;12.00;99.90;;;;;;5068924;28;20483;-74
2023/09/25 05:35:08;;;;;;;9.35;2.92;;;12.80;99.90;;;;;;5069812;28;20059;-76
2023/09/25 05:37:33;;;;;;;5.30;2.83;;;12.00;99.90;;;;;;5069229;28;20048;-75
2023/09/25 05:40:00;;;;;;;6.63;3.13;;;12.00;99.90;;;;;;5067651;28;20085;-75
2023/09/25 05:42:26;;;;;;;7.93;2.88;;;12.30;99.90;;;;;;5069077;28;20052;-76
2023/09/25 05:44:51;;;;;;;5.25;2.78;;;12.50;99.90;;;;;;5069605;28;20040;-76
2023/09/25 05:47:17;;;;;;;6.25;3.03;;;12.00;99.90;;;;;;5068952;28;20595;-74
2023/09/25 05:49:43;;;;;;;4.13;2.60;;;12.00;99.90;;;;;;5069303;28;20040;-75
2023/09/25 05:52:09;;;;;;;5.93;2.90;;;12.40;99.90;;;;;;5069006;28;20404;-76
2023/09/25 05:54:34;;;;;;;7.72;2.90;;;12.00;99.90;;;;;;5068591;28;20104;-75
2023/09/25 05:57:00;;;;;;;6.65;2.72;;;12.50;99.90;;;;;;5068111;28;20123;-75
2023/09/25 05:59:26;;;;;;;6.03;2.50;;;12.50;99.90;;;;;;5063881;28;20097;-75
2023/09/25 06:01:52;;;;;;;5.40;2.28;;;12.00;99.90;;;;;;5070199;28;20109;-76
2023/09/25 06:04:18;;;;;;;5.32;2.90;;;12.00;99.90;;;;;;5071631;28;20425;-79
2023/09/25 06:06:43;;;;;;;5.82;2.92;;;12.50;99.90;;;;;;5071908;28;20666;-75
2023/09/25 06:09:15;;;;;;;5.13;2.63;;;12.00;99.90;;;;;;5072580;28;20605;-72
2023/09/25 06:11:41;;;;;;;5.30;2.55;;;12.10;99.90;;;;;;5072160;28;20032;-75
2023/09/25 06:14:07;;;;;;;6.35;2.58;;;12.30;99.90;;;;;;5071065;28;20055;-76
2023/09/25 06:16:36;;;;;;;4.38;2.47;;;12.50;99.90;;;;;;5072837;28;20044;-77
2023/09/25 06:19:02;;;;;;;4.68;2.47;;;12.50;99.90;;;;;;5072924;28;20047;-76
2023/09/25 06:21:28;;;;;;;9.38;2.47;;;12.10;99.90;;;;;;5072817;28;20056;-75
2023/09/25 06:23:54;;;;;;;5.38;2.30;;;12.90;99.90;;;;;;5070963;28;20818;-75
2023/09/25 06:26:20;;;;;;;5.78;2.17;;;12.20;99.90;;;;;;5072651;28;20054;-77
2023/09/25 06:28:46;;;;;;;4.00;2.28;;;12.20;99.90;;;;;;5072459;28;20059;-74
2023/09/25 06:31:13;;;;;;;6.60;2.67;;;12.30;99.90;;;;;;5072415;28;20048;-78
2023/09/25 06:33:39;;;;;;;3.63;2.03;;;12.30;99.90;;;;;;5072543;28;20048;-75
2023/09/25 06:36:05;;;;;;;4.13;2.30;;;12.40;99.90;;;;;;5071894;28;20044;-74
2023/09/25 06:38:31;;;;;;;4.13;2.30;;;12.40;99.90;;;;;;5072480;28;20055;-76
2023/09/25 06:40:57;;;;;;;4.13;2.15;;;12.40;99.90;;;;;;5071944;28;20044;-74
2023/09/25 06:43:22;;;;;;;4.95;2.25;;;13.20;99.90;;;;;;5072155;28;20501;-73
2023/09/25 06:45:48;;;;;;;6.32;2.40;;;12.50;99.90;;;;;;5072261;28;20036;-75
2023/09/25 06:48:14;;;;;;;6.07;2.00;;;12.50;99.90;;;;;;5071911;28;20048;-74
2023/09/25 06:50:40;;;;;;;5.45;2.65;;;12.50;99.90;;;;;;5072292;28;20043;-75
2023/09/25 06:53:05;;;;;;;5.32;2.47;;;12.60;99.90;;;;;;5072119;28;20041;-75
2023/09/25 06:55:32;;;;;;;6.05;2.30;;;12.60;99.90;;;;;;5071478;28;20086;-74
2023/09/25 06:57:57;;;;;;;5.32;2.33;;;12.90;99.90;;;;;;5071967;28;20040;-77
2023/09/25 07:00:24;;;;;;;4.18;2.03;;;12.70;99.90;;;;;;5071844;28;20047;-75
2023/09/25 07:02:50;;;;;;;8.23;2.13;;;12.70;99.90;;;;;;5071933;28;20097;-78
2023/09/25 07:05:16;;;;;;;6.93;2.35;;;12.80;99.90;;;;;;5071958;28;20115;-77
2023/09/25 07:07:42;;;;;;;5.68;2.20;;;12.80;99.90;;;;;;5071794;28;20048;-75
2023/09/25 07:10:09;;;;;;;5.43;1.98;;;13.10;99.90;;;;;;5071448;28;20093;-75
2023/09/25 07:12:36;;;;;;;4.40;1.80;;;12.80;99.90;;;;;;5071307;28;20045;-74
2023/09/25 07:15:03;;;;;;;4.38;1.83;;;13.00;99.90;;;;;;5071646;28;20052;-75
2023/09/25 07:17:29;;;;;;;5.88;2.40;;;12.90;99.90;;;;;;5071333;28;20036;-76
2023/09/25 07:19:56;;;;;;;7.78;2.10;;;12.90;99.90;;;;;;5072197;28;20036;-74
2023/09/25 07:22:23;;;;;;;5.57;2.20;;;13.40;99.90;;;;;;5072003;28;20044;-73
2023/09/25 07:24:50;;;;;;;6.25;2.20;;;13.10;99.90;;;;;;5071486;28;20048;-76
2023/09/25 07:27:16;;;;;;;3.22;2.17;;;13.30;99.90;;;;;;5071983;28;20561;-72
2023/09/25 07:29:45;;;;;;;7.68;2.00;;;13.20;99.90;;;;;;5071731;28;20151;-75
2023/09/25 07:32:12;;;;;;;5.32;1.98;;;13.30;99.90;;;;;;5071352;28;20052;-74
2023/09/25 07:34:38;;;;;;;5.50;2.10;;;13.30;99.90;;;;;;5071147;28;20377;-74
2023/09/25 07:37:05;;;;;;;3.75;2.03;;;13.40;99.90;;;;;;5072101;28;20053;-74
2023/09/25 07:39:38;;;;;;;4.20;2.25;;;13.50;99.90;;;;;;5071769;28;20033;-72
2023/09/25 07:42:04;;;;;;;3.45;1.88;;;13.50;99.90;;;;;;5070733;28;20102;-75
2023/09/25 07:44:33;;;;;;;5.93;2.05;;;13.60;99.90;;;;;;5069780;28;20395;-76
2023/09/25 07:47:00;;;;;;;5.30;2.22;;;13.60;99.90;;;;;;5069610;28;20080;-74
2023/09/25 07:49:27;;;;;;;7.22;1.98;;;13.70;99.90;;;;;;5071831;28;20476;-75
2023/09/25 07:51:54;;;;;;;5.75;2.13;;;13.80;99.90;;;;;;5071833;28;20098;-74
2023/09/25 07:54:20;;;;;;;4.53;1.88;;;13.80;99.90;;;;;;5070376;28;20398;-77
2023/09/25 07:56:47;;;;;;;5.15;1.58;;;13.90;99.90;;;;;;5071448;28;20040;-74
2023/09/25 07:59:13;;;;;;;3.83;1.95;;;13.90;99.90;;;;;;5071325;28;20094;-75
2023/09/25 08:01:42;;;;;;;4.82;1.80;;;14.00;99.90;;;;;;5071420;28;20055;-74
2023/09/25 08:04:08;;;;;;;3.53;1.60;;;14.30;99.90;;;;;;5073402;28;20063;-75
2023/09/25 08:06:33;;;;;;;3.80;1.80;;;14.10;99.90;;;;;;5069997;28;20052;-75
2023/09/25 08:08:59;;;;;;;3.42;1.77;;;14.20;99.90;;;;;;5070204;28;20068;-74
2023/09/25 08:11:28;;;;;;;6.57;1.75;;;14.30;99.90;;;;;;5071054;28;20049;-75
2023/09/25 08:13:54;;;;;;;8.95;2.10;;;14.50;99.90;;;;;;5071267;28;20483;-77
2023/09/25 08:16:23;;;;;;;7.25;1.80;;;14.40;99.90;;;;;;5070905;28;20048;-75
2023/09/25 08:18:49;;;;;;;4.05;1.63;;;14.40;99.90;;;;;;5063199;28;20044;-74
2023/09/25 08:21:14;;;;;;;3.83;1.95;;;14.60;99.90;;;;;;5071110;28;20055;-77
2023/09/25 08:23:40;;;;;;;4.43;1.83;;;14.70;99.90;;;;;;5069751;28;20102;-74
2023/09/25 08:26:06;;;;;;;3.45;1.55;;;14.70;99.90;;;;;;5070629;28;20483;-76
2023/09/25 08:28:33;;;;;;;3.58;1.88;;;14.80;99.90;;;;;;5070503;28;20495;-75
2023/09/25 08:30:58;;;;;;;4.75;1.73;;;14.90;99.90;;;;;;5060772;28;20091;-74
2023/09/25 08:33:24;;;;;;;5.25;1.92;;;15.00;99.90;;;;;;5075138;28;20775;-73
2023/09/25 08:35:51;;;;;;;3.45;1.60;;;15.10;99.90;;;;;;5072586;28;20044;-74
2023/09/25 08:38:16;;;;;;;4.63;1.77;;;15.60;99.90;;;;;;5070425;28;20557;-76
2023/09/25 08:40:49;;;;;;;9.50;2.00;;;15.30;99.90;;;;;;5069077;28;20052;-76
2023/09/25 08:43:15;;;;;;;3.65;1.73;;;15.50;99.90;;;;;;5061549;28;20060;-75
2023/09/25 08:45:44;;;;;;;4.80;1.65;;;16.00;99.90;;;;;;5070000;28;20057;-73
2023/09/25 08:48:10;;;;;;;4.95;1.75;;;15.80;99.90;;;;;;5068999;28;20090;-73
2023/09/25 08:50:40;;;;;;;3.38;1.73;;;15.90;99.90;;;;;;5070241;28;20055;-76
2023/09/25 08:53:06;;;;;;;4.32;1.60;;;16.00;99.90;;;;;;5070402;28;20048;-76
2023/09/25 08:55:35;;;;;;;6.10;2.00;;;16.20;99.90;;;;;;5069199;28;20048;-74
2023/09/25 08:58:01;;;;;;;6.90;1.75;;;16.30;99.90;;;;;;5069844;28;20045;-74
2023/09/25 09:00:29;;;;;;;4.47;1.80;;;16.50;99.90;;;;;;5070152;28;20041;-75
2023/09/25 09:02:55;;;;;;;6.38;1.85;;;16.60;99.90;;;;;;5068823;28;20105;-73
2023/09/25 09:05:21;;;;;;;6.18;1.70;;;16.70;99.90;;;;;;5070217;28;20048;-76
2023/09/25 09:08:16;;;;;;;4.38;1.85;;;16.90;99.90;;;;;;5069844;28;20040;-72
2023/09/25 09:10:43;;;;;;;3.90;1.63;;;17.00;99.90;;;;;;5011616;28;20068;-76
2023/09/25 09:13:10;;;;;;;4.05;1.70;;;17.20;99.90;;;;;;5035890;28;20042;-74
2023/09/25 09:15:37;;;;;;;4.95;1.52;;;17.30;99.90;;;;;;5021665;28;20135;-75
2023/09/25 09:18:22;;;;;;;4.32;1.55;;;17.30;99.90;;;;;;5022116;28;20076;-75
2023/09/25 09:20:48;;;;;;;4.65;1.73;;;17.40;99.90;;;;;;5031213;28;20049;-76
2023/09/25 09:23:16;;;;;;;5.43;1.65;;;17.50;99.90;;;;;;5036309;28;20128;-73
2023/09/25 09:25:46;;;;;;;5.88;1.63;;;17.50;99.90;;;;;;5032050;28;20145;-73
2023/09/25 09:28:12;;;;;;;3.13;1.30;;;17.60;99.90;;;;;;5036338;28;20057;-75
2023/09/25 09:30:38;;;;;;;2.72;1.33;;;17.70;99.90;;;;;;5015539;28;20057;-74
2023/09/25 09:33:07;;;;;;;3.85;1.63;;;17.90;99.90;;;;;;5022711;28;20500;-76
2023/09/25 09:35:32;;;;;;;3.92;1.30;;;18.00;99.90;;;;;;5022573;28;20053;-72
2023/09/25 09:37:58;;;;;;;4.57;1.70;;;18.20;99.90;;;;;;5040379;28;20049;-74
2023/09/25 09:40:25;;;;;;;3.40;1.60;;;18.20;99.90;;;;;;5039823;28;20050;-74
2023/09/25 09:42:54;;;;;;;4.40;1.55;;;18.40;99.90;;;;;;5040245;28;20061;-74
2023/09/25 09:45:21;;;;;;;5.22;1.58;;;18.40;99.90;;;;;;5042897;28;20116;-74
2023/09/25 09:47:49;;;;;;;3.35;1.33;;;18.50;99.90;;;;;;5068202;28;20048;-74
2023/09/25 09:50:21;;;;;;;4.07;1.58;;;18.60;99.90;;;;;;5073748;28;20051;-74
2023/09/25 09:52:47;;;;;;;3.53;1.70;;;18.80;99.90;;;;;;5073847;28;20491;-72
2023/09/25 09:55:14;;;;;;;2.55;1.20;;;18.90;99.90;;;;;;5073846;28;20052;-73
2023/09/25 09:57:40;;;;;;;6.43;1.67;;;18.90;99.90;;;;;;5072230;28;20075;-74
2023/09/25 10:00:07;;;;;;;5.15;1.83;;;19.00;99.90;;;;;;5074401;28;20036;-73
2023/09/25 10:02:34;;;;;;;3.28;1.40;;;19.10;99.90;;;;;;5073685;28;20444;-73
2023/09/25 10:05:02;;;;;;;3.53;1.50;;;19.30;99.90;;;;;;5073926;28;20048;-74
2023/09/25 10:07:28;;;;;;;4.97;1.55;;;19.40;99.90;;;;;;5073048;28;20091;-74
2023/09/25 10:10:04;;;;;;;3.20;1.42;;;19.60;99.90;;;;;;5073170;28;20038;-75
2023/09/25 10:12:49;;;;;;;4.68;1.70;;;19.70;99.90;;;;;;5072828;28;20055;-72
2023/09/25 10:15:24;;;;;;;;;;;19.80;99.90;;;;;;5070451;28;20036;-76
2023/09/25 10:17:49;;;;;;;3.30;1.50;;;19.90;99.90;;;;;;5065767;28;19928;-74
2023/09/25 10:20:31;;;;;;;3.22;1.50;;;20.00;99.90;;;;;;5072018;28;20056;-74
2023/09/25 10:22:59;;;;;;;3.10;1.42;;;20.10;99.90;;;;;;5066194;28;20116;-75
2023/09/25 10:25:25;;;;;;;3.17;1.50;;;20.10;99.90;;;;;;5055226;28;20037;-75
2023/09/25 10:27:52;;;;;;;4.10;1.67;;;20.30;99.90;;;;;;5073127;28;20436;-74
2023/09/25 10:30:18;;;;;;;3.58;1.40;;;20.30;99.90;;;;;;5072893;28;20043;-73
2023/09/25 10:32:52;;;;;;;6.50;1.38;;;20.40;99.90;;;;;;5072957;28;20411;-74
2023/09/25 10:35:44;;;;;;;3.78;1.60;;;20.50;99.90;;;;;;5073012;28;20053;-74
2023/09/25 10:38:13;;;;;;;2.75;1.30;;;20.40;99.90;;;;;;5065367;28;20812;-73
2023/09/25 10:40:43;;;;;;;7.60;1.48;;;20.30;99.90;;;;;;5073479;28;20052;-73
2023/09/25 10:43:09;;;;;;;5.35;1.50;;;20.40;99.90;;;;;;5064407;28;20067;-75
2023/09/25 10:45:36;;;;;;;3.58;1.45;;;20.40;99.90;;;;;;5072801;28;20819;-75
2023/09/25 10:48:02;;;;;;;5.20;1.55;;;20.50;99.90;;;;;;5053774;28;20071;-75
2023/09/25 10:50:28;;;;;;;5.70;1.70;;;20.60;99.90;;;;;;5071141;28;20029;-73
2023/09/25 10:52:54;;;;;;;4.13;1.30;;;20.60;99.90;;;;;;5071654;28;20787;-76
2023/09/25 10:55:20;;;;;;;4.00;1.40;;;20.70;99.90;;;;;;5064496;28;20099;-73
2023/09/25 10:57:46;;;;;;;4.88;1.50;;;20.90;99.90;;;;;;5072628;28;20044;-75
2023/09/25 11:00:15;;;;;;;3.80;1.67;;;20.90;99.90;;;;;;5070921;28;20434;-73
2023/09/25 11:02:44;;;;;;;6.95;1.52;;;21.10;99.90;;;;;;5072895;28;20403;-71
2023/09/25 11:05:10;;;;;;;5.82;1.70;;;21.00;99.90;;;;;;5072944;28;20120;-74
2023/09/25 11:07:37;;;;;;;3.95;1.70;;;21.10;99.90;;;;;;5072069;28;20051;-71
2023/09/25 11:10:04;;;;;;;4.90;1.70;;;21.20;99.90;;;;;;5071204;28;20044;-72
2023/09/25 11:12:30;;;;;;;5.38;1.63;;;21.20;99.90;;;;;;5076006;28;20540;-72
2023/09/25 11:14:57;;;;;;;6.55;1.60;;;21.40;99.90;;;;;;5070375;28;20039;-71
2023/09/25 11:17:24;;;;;;;4.03;1.88;;;21.50;99.90;;;;;;5071683;28;20238;-73
2023/09/25 11:19:52;;;;;;;5.32;1.63;;;21.60;99.90;;;;;;5071654;28;20046;-72
2023/09/25 11:22:21;;;;;;;4.07;1.50;;;21.60;99.90;;;;;;5071405;28;20056;-74
2023/09/25 11:24:58;;;;;;;3.33;1.45;;;21.60;99.90;;;;;;5069615;28;20068;-72
2023/09/25 11:27:24;;;;;;;3.95;1.60;;;21.50;99.90;;;;;;5071428;28;20408;-72
2023/09/25 11:29:50;;;;;;;4.28;1.42;;;21.40;99.90;;;;;;5070164;28;20052;-72
2023/09/25 11:32:16;;;;;;;5.63;1.15;;;21.30;99.90;;;;;;5071037;28;20056;-72
2023/09/25 11:34:43;;;;;;;5.35;1.55;;;21.30;99.90;;;;;;5071285;28;20791;-74
2023/09/25 11:37:22;;;;;;;3.90;1.70;;;21.30;99.90;;;;;;5071122;28;20048;-74
2023/09/25 11:39:48;;;;;;;10.30;2.25;;;21.20;99.90;;;;;;5070876;28;20072;-74
2023/09/25 11:42:15;;;;;;;5.00;1.40;;;21.30;99.90;;;;;;5071056;28;20067;-73
2023/09/25 11:44:40;;;;;;;3.20;1.75;;;21.30;99.90;;;;;;5070771;28;20127;-72
2023/09/25 11:47:06;;;;;;;4.15;1.52;;;21.40;99.90;;;;;;5069340;28;20186;-74
2023/09/25 11:49:32;;;;;;;2.92;1.45;;;21.40;99.90;;;;;;5071133;28;20048;-74
2023/09/25 11:51:58;;;;;;;4.85;1.70;;;21.50;99.90;;;;;;5071010;28;20494;-74
2023/09/25 11:54:23;;;;;;;3.63;1.40;;;21.50;99.90;;;;;;5071062;28;20174;-73
2023/09/25 11:56:49;;;;;;;4.97;1.77;;;21.80;99.90;;;;;;5070529;28;20658;-77
2023/09/25 11:59:16;;;;;;;5.43;1.40;;;21.90;99.90;;;;;;5070477;28;20106;-76
2023/09/25 12:01:42;;;;;;;3.80;1.42;;;22.10;99.90;;;;;;5071040;28;20052;-77
2023/09/25 12:04:10;;;;;;;4.57;1.50;;;22.30;99.90;;;;;;5071192;28;20067;-75
2023/09/25 12:06:37;;;;;;;3.83;1.40;;;22.50;99.90;;;;;;5070450;28;20047;-79
2023/09/25 12:09:12;;;;;;;4.88;1.20;;;22.60;99.90;;;;;;5070958;28;20036;-75
2023/09/25 12:11:41;;;;;;;4.75;1.40;;;22.70;99.90;;;;;;5061413;28;20052;-74
2023/09/25 12:14:08;;;;;;;4.43;1.60;;;22.70;99.90;;;;;;5070650;28;20048;-75
2023/09/25 12:16:34;;;;;;;9.05;1.90;;;22.80;99.90;;;;;;5070223;28;20048;-74
2023/09/25 12:18:59;;;;;;;4.60;1.40;;;22.80;99.90;;;;;;5070124;28;20064;-75
2023/09/25 12:21:25;;;;;;;3.67;1.63;;;22.90;99.90;;;;;;5070418;28;20055;-75
2023/09/25 12:23:51;;;;;;;4.68;1.45;;;22.80;99.90;;;;;;5069406;28;20048;-75
2023/09/25 12:26:16;;;;;;;2.95;1.35;;;22.80;99.90;;;;;;5069367;28;20137;-74
2023/09/25 12:28:42;;;;;;;5.20;1.33;;;22.70;99.90;;;;;;5070463;28;20182;-77
2023/09/25 12:31:08;;;;;;;4.75;1.27;;;22.60;99.90;;;;;;5068615;28;20090;-75
2023/09/25 12:33:33;;;;;;;4.20;1.50;;;22.30;99.90;;;;;;5070163;28;20033;-74
2023/09/25 12:35:59;;;;;;;4.25;1.08;;;22.20;99.90;;;;;;5061651;28;20036;-75
2023/09/25 12:38:25;;;;;;;5.30;1.33;;;22.10;99.90;;;;;;5070229;28;20502;-76
2023/09/25 12:40:51;;;;;;;2.88;1.25;;;22.10;99.90;;;;;;5070121;28;20040;-78
2023/09/25 12:43:17;;;;;;;3.75;1.30;;;22.10;99.90;;;;;;5070206;28;20044;-76
2023/09/25 12:45:43;;;;;;;3.28;1.50;;;22.10;99.90;;;;;;5070401;28;20055;-76